createdAt,value
2022-12-31T00:00:14.530Z,10.42
2022-12-31T00:01:14.348Z,10.56
2022-12-31T00:02:14.779Z,10.51
2022-12-31T00:03:14.943Z,10.54
2022-12-31T00:04:14.390Z,10.56
2022-12-31T00:05:14.440Z,10.51
2022-12-31T00:06:14.171Z,10.44
2022-12-31T00:07:14.206Z,10.46
2022-12-31T00:08:14.211Z,10.51
2022-12-31T00:09:14.209Z,10.54
2022-12-31T00:10:14.284Z,10.54
2022-12-31T00:11:14.506Z,10.49
2022-12-31T00:12:14.847Z,10.49
2022-12-31T00:13:14.292Z,10.56
2022-12-31T00:14:14.538Z,10.53
2022-12-31T00:15:14.574Z,10.51
2022-12-31T00:16:17.208Z,10.56
2022-12-31T00:17:14.808Z,10.46
2022-12-31T00:18:14.631Z,10.48
2022-12-31T00:19:14.362Z,10.56
2022-12-31T00:20:14.648Z,10.51
2022-12-31T00:21:14.659Z,10.48
2022-12-31T00:22:14.683Z,10.53
2022-12-31T00:23:14.690Z,10.56
2022-12-31T00:24:14.731Z,10.53
2022-12-31T00:25:14.768Z,10.44
2022-12-31T00:26:14.834Z,10.53
2022-12-31T00:27:14.507Z,10.48
2022-12-31T00:28:14.775Z,10.51
2022-12-31T00:29:14.787Z,10.48
2022-12-31T00:30:14.801Z,10.57
2022-12-31T00:31:15.012Z,10.6
2022-12-31T00:32:14.578Z,10.49
2022-12-31T00:33:14.840Z,10.61
2022-12-31T00:34:14.895Z,10.61
2022-12-31T00:35:14.879Z,10.61
2022-12-31T00:36:14.926Z,10.59
2022-12-31T00:37:14.923Z,10.6
2022-12-31T00:38:14.926Z,10.54
2022-12-31T00:39:14.998Z,10.61
2022-12-31T00:40:14.959Z,10.49
2022-12-31T00:41:14.978Z,10.59
2022-12-31T00:42:15.027Z,10.53
2022-12-31T00:43:14.993Z,10.67
2022-12-31T00:44:15.056Z,10.64
2022-12-31T00:45:15.056Z,10.57
2022-12-31T00:46:15.447Z,10.59
2022-12-31T00:47:15.086Z,10.63
2022-12-31T00:48:15.074Z,10.57
2022-12-31T00:49:15.089Z,10.64
2022-12-31T00:50:15.118Z,10.69
2022-12-31T00:51:14.884Z,10.6
2022-12-31T00:52:15.169Z,10.57
2022-12-31T00:53:15.357Z,10.63
2022-12-31T00:54:15.346Z,10.59
2022-12-31T00:55:15.342Z,10.51
2022-12-31T00:56:15.370Z,10.69
2022-12-31T00:57:15.366Z,10.67
2022-12-31T00:58:15.452Z,10.61
2022-12-31T00:59:15.088Z,10.57
2022-12-31T01:00:15.035Z,10.59
2022-12-31T01:01:15.843Z,10.6
2022-12-31T01:02:15.951Z,10.63
2022-12-31T01:03:15.537Z,10.6
2022-12-31T01:04:15.126Z,10.61
2022-12-31T01:05:15.089Z,10.61
2022-12-31T01:06:15.163Z,10.6
2022-12-31T01:07:14.873Z,10.61
2022-12-31T01:08:15.384Z,10.56
2022-12-31T01:09:15.433Z,10.61
2022-12-31T01:10:15.419Z,10.64
2022-12-31T01:11:15.446Z,10.59
2022-12-31T01:12:15.257Z,10.64
2022-12-31T01:13:15.038Z,10.68
2022-12-31T01:14:15.639Z,10.64
2022-12-31T01:15:15.510Z,10.61
2022-12-31T01:16:15.840Z,10.64
2022-12-31T01:17:15.546Z,10.59
2022-12-31T01:18:15.583Z,10.61
2022-12-31T01:19:15.306Z,10.59
2022-12-31T01:20:15.591Z,10.71
2022-12-31T01:21:15.339Z,10.56
2022-12-31T01:22:15.655Z,10.69
2022-12-31T01:23:15.617Z,10.67
2022-12-31T01:24:15.659Z,10.69
2022-12-31T01:25:15.910Z,10.61
2022-12-31T01:26:15.407Z,10.71
2022-12-31T01:27:15.686Z,10.64
2022-12-31T01:28:15.698Z,10.71
2022-12-31T01:29:15.743Z,10.67
2022-12-31T01:30:15.520Z,10.63
2022-12-31T01:31:15.557Z,10.68
2022-12-31T01:32:15.764Z,10.68
2022-12-31T01:33:15.779Z,10.63
2022-12-31T01:34:15.840Z,10.59
2022-12-31T01:35:15.811Z,10.68
2022-12-31T01:36:19.014Z,10.61
2022-12-31T01:37:15.593Z,10.64
2022-12-31T01:38:15.896Z,10.71
2022-12-31T01:39:15.630Z,10.61
2022-12-31T01:40:15.877Z,10.63
2022-12-31T01:41:15.929Z,10.69
2022-12-31T01:42:15.916Z,10.69
2022-12-31T01:43:15.686Z,10.64
2022-12-31T01:44:15.953Z,10.69
2022-12-31T01:45:15.989Z,10.64
2022-12-31T01:46:16.163Z,10.71
2022-12-31T01:47:16.026Z,10.67
2022-12-31T01:48:16.011Z,10.71
2022-12-31T01:49:16.061Z,10.76
2022-12-31T01:50:15.894Z,10.71
2022-12-31T01:51:15.830Z,10.74
2022-12-31T01:52:15.830Z,10.68
2022-12-31T01:53:15.835Z,10.74
2022-12-31T01:54:16.156Z,10.68
2022-12-31T01:55:16.147Z,10.69
2022-12-31T01:56:16.141Z,10.74
2022-12-31T01:57:15.897Z,10.64
2022-12-31T01:58:16.173Z,10.71
2022-12-31T01:59:16.185Z,10.75
2022-12-31T02:00:15.976Z,10.76
2022-12-31T02:01:16.394Z,10.72
2022-12-31T02:02:16.551Z,10.75
2022-12-31T02:03:16.297Z,10.69
2022-12-31T02:04:16.284Z,10.78
2022-12-31T02:05:16.039Z,10.78
2022-12-31T02:06:16.315Z,10.68
2022-12-31T02:07:16.074Z,10.82
2022-12-31T02:08:16.087Z,10.78
2022-12-31T02:09:15.842Z,10.81
2022-12-31T02:10:16.165Z,10.76
2022-12-31T02:11:16.103Z,10.75
2022-12-31T02:12:16.703Z,10.76
2022-12-31T02:13:16.406Z,10.74
2022-12-31T02:14:16.425Z,10.72
2022-12-31T02:15:16.181Z,10.78
2022-12-31T02:16:16.677Z,10.79
2022-12-31T02:17:16.484Z,10.81
2022-12-31T02:18:16.539Z,10.75
2022-12-31T02:19:16.495Z,10.75
2022-12-31T02:20:16.556Z,10.81
2022-12-31T02:21:16.731Z,10.76
2022-12-31T02:22:16.657Z,10.78
2022-12-31T02:23:16.595Z,10.76
2022-12-31T02:24:16.591Z,10.71
2022-12-31T02:25:16.653Z,10.81
2022-12-31T02:26:16.629Z,10.84
2022-12-31T02:27:16.361Z,10.81
2022-12-31T02:28:16.647Z,10.76
2022-12-31T02:29:16.405Z,10.81
2022-12-31T02:30:16.703Z,10.78
2022-12-31T02:31:19.345Z,10.78
2022-12-31T02:32:17.549Z,10.78
2022-12-31T02:33:16.507Z,10.76
2022-12-31T02:34:16.783Z,10.76
2022-12-31T02:35:16.494Z,10.79
2022-12-31T02:36:16.823Z,10.76
2022-12-31T02:37:16.800Z,10.87
2022-12-31T02:38:16.536Z,10.78
2022-12-31T02:39:16.820Z,10.82
2022-12-31T02:40:16.843Z,10.81
2022-12-31T02:41:16.600Z,10.82
2022-12-31T02:42:16.900Z,10.86
2022-12-31T02:43:16.894Z,10.79
2022-12-31T02:44:16.907Z,10.86
2022-12-31T02:45:16.682Z,10.86
2022-12-31T02:46:17.074Z,10.76
2022-12-31T02:47:16.691Z,10.81
2022-12-31T02:48:16.696Z,10.79
2022-12-31T02:49:16.713Z,10.81
2022-12-31T02:50:16.808Z,10.81
2022-12-31T02:51:17.019Z,10.82
2022-12-31T02:52:17.369Z,10.81
2022-12-31T02:53:17.038Z,10.81
2022-12-31T02:54:17.052Z,10.84
2022-12-31T02:55:17.068Z,10.86
2022-12-31T02:56:16.837Z,10.86
2022-12-31T02:57:17.116Z,10.82
2022-12-31T02:58:17.145Z,10.81
2022-12-31T02:59:17.151Z,10.93
2022-12-31T03:00:17.149Z,10.86
2022-12-31T03:01:17.687Z,10.9
2022-12-31T03:02:17.708Z,10.93
2022-12-31T03:03:16.961Z,10.84
2022-12-31T03:04:17.227Z,10.79
2022-12-31T03:05:17.241Z,10.9
2022-12-31T03:06:17.311Z,10.93
2022-12-31T03:07:17.275Z,10.89
2022-12-31T03:08:17.272Z,10.78
2022-12-31T03:09:17.298Z,10.76
2022-12-31T03:10:17.320Z,10.92
2022-12-31T03:11:17.310Z,10.97
2022-12-31T03:12:17.084Z,10.81
2022-12-31T03:13:17.383Z,10.92
2022-12-31T03:14:17.422Z,10.89
2022-12-31T03:15:17.378Z,10.9
2022-12-31T03:16:17.522Z,10.92
2022-12-31T03:17:17.437Z,10.96
2022-12-31T03:18:17.480Z,10.94
2022-12-31T03:19:17.446Z,10.94
2022-12-31T03:20:17.533Z,10.99
2022-12-31T03:21:17.488Z,10.93
2022-12-31T03:22:17.552Z,10.93
2022-12-31T03:23:17.524Z,11.02
2022-12-31T03:24:17.538Z,10.96
2022-12-31T03:25:17.567Z,10.97
2022-12-31T03:26:17.822Z,11.02
2022-12-31T03:27:17.789Z,10.97
2022-12-31T03:28:17.782Z,10.93
2022-12-31T03:29:17.550Z,10.94
2022-12-31T03:30:17.877Z,10.94
2022-12-31T03:31:17.856Z,10.9
2022-12-31T03:32:17.764Z,10.99
2022-12-31T03:33:17.816Z,11
2022-12-31T03:34:17.794Z,11.02
2022-12-31T03:35:17.727Z,10.97
2022-12-31T03:36:17.783Z,10.96
2022-12-31T03:37:17.839Z,11.07
2022-12-31T03:38:17.589Z,11.04
2022-12-31T03:39:17.907Z,11
2022-12-31T03:40:17.537Z,10.94
2022-12-31T03:41:17.813Z,10.97
2022-12-31T03:42:17.580Z,11.02
2022-12-31T03:43:17.843Z,11
2022-12-31T03:44:17.840Z,11.02
2022-12-31T03:45:17.864Z,10.99
2022-12-31T03:46:17.805Z,10.99
2022-12-31T03:47:17.888Z,10.99
2022-12-31T03:48:17.649Z,11.02
2022-12-31T03:49:17.674Z,10.96
2022-12-31T03:50:17.938Z,10.96
2022-12-31T03:51:17.966Z,11.02
2022-12-31T03:52:18.168Z,11
2022-12-31T03:53:17.748Z,11.08
2022-12-31T03:54:18.048Z,11.04
2022-12-31T03:55:17.776Z,11.05
2022-12-31T03:56:17.790Z,11.04
2022-12-31T03:57:18.068Z,11.08
2022-12-31T03:58:17.811Z,11.11
2022-12-31T03:59:18.087Z,11.08
2022-12-31T04:00:18.142Z,11
2022-12-31T04:01:18.300Z,11.11
2022-12-31T04:02:22.009Z,11.12
2022-12-31T04:03:18.365Z,11.12
2022-12-31T04:04:18.161Z,11.12
2022-12-31T04:05:17.904Z,11.15
2022-12-31T04:06:18.222Z,11.12
2022-12-31T04:07:18.226Z,11.1
2022-12-31T04:08:17.979Z,11.15
2022-12-31T04:09:17.979Z,11.12
2022-12-31T04:10:18.334Z,11.19
2022-12-31T04:11:25.334Z,11.17
2022-12-31T04:12:18.417Z,11.07
2022-12-31T04:13:18.328Z,11.14
2022-12-31T04:14:18.332Z,11.11
2022-12-31T04:15:18.080Z,11.18
2022-12-31T04:16:18.483Z,11.12
2022-12-31T04:17:18.126Z,11.19
2022-12-31T04:18:18.436Z,11.22
2022-12-31T04:19:18.388Z,11.15
2022-12-31T04:20:18.499Z,11.18
2022-12-31T04:21:18.452Z,11.23
2022-12-31T04:22:18.177Z,11.18
2022-12-31T04:23:18.211Z,11.15
2022-12-31T04:24:18.478Z,11.17
2022-12-31T04:25:18.510Z,11.19
2022-12-31T04:26:18.560Z,11.25
2022-12-31T04:27:18.521Z,11.18
2022-12-31T04:28:18.322Z,11.22
2022-12-31T04:29:18.562Z,11.18
2022-12-31T04:30:18.492Z,11.25
2022-12-31T04:31:18.613Z,11.23
2022-12-31T04:32:18.637Z,11.29
2022-12-31T04:33:18.368Z,11.23
2022-12-31T04:34:18.684Z,11.18
2022-12-31T04:35:18.663Z,11.19
2022-12-31T04:36:18.670Z,11.19
2022-12-31T04:37:18.703Z,11.19
2022-12-31T04:38:18.436Z,11.26
2022-12-31T04:39:18.719Z,11.26
2022-12-31T04:40:18.467Z,11.3
2022-12-31T04:41:18.486Z,11.25
2022-12-31T04:42:18.564Z,11.33
2022-12-31T04:43:18.522Z,11.35
2022-12-31T04:44:18.820Z,11.25
2022-12-31T04:45:18.825Z,11.35
2022-12-31T04:46:18.999Z,11.32
2022-12-31T04:47:26.399Z,11.36
2022-12-31T04:48:18.872Z,11.3
2022-12-31T04:49:18.616Z,11.33
2022-12-31T04:50:18.925Z,11.36
2022-12-31T04:51:18.651Z,11.35
2022-12-31T04:52:19.144Z,11.4
2022-12-31T04:53:18.931Z,11.36
2022-12-31T04:54:18.992Z,11.35
2022-12-31T04:55:18.735Z,11.37
2022-12-31T04:56:18.993Z,11.33
2022-12-31T04:57:18.807Z,11.32
2022-12-31T04:58:19.100Z,11.35
2022-12-31T04:59:19.046Z,11.44
2022-12-31T05:00:19.089Z,11.35
2022-12-31T05:01:19.288Z,11.36
2022-12-31T05:02:19.704Z,11.35
2022-12-31T05:03:19.226Z,11.4
2022-12-31T05:04:19.230Z,11.22
2022-12-31T05:05:19.138Z,11.35
2022-12-31T05:06:19.195Z,11.35
2022-12-31T05:07:19.196Z,11.32
2022-12-31T05:08:18.923Z,11.37
2022-12-31T05:09:19.326Z,11.37
2022-12-31T05:10:19.260Z,11.36
2022-12-31T05:11:19.268Z,11.45
2022-12-31T05:12:19.253Z,11.4
2022-12-31T05:13:19.310Z,11.36
2022-12-31T05:14:19.342Z,11.32
2022-12-31T05:15:19.054Z,11.41
2022-12-31T05:16:19.469Z,11.32
2022-12-31T05:17:19.337Z,11.5
2022-12-31T05:18:19.091Z,11.41
2022-12-31T05:19:19.612Z,11.41
2022-12-31T05:20:19.421Z,11.45
2022-12-31T05:21:19.409Z,11.37
2022-12-31T05:22:19.455Z,11.41
2022-12-31T05:23:19.426Z,11.43
2022-12-31T05:24:19.189Z,11.44
2022-12-31T05:25:19.207Z,11.37
2022-12-31T05:26:19.227Z,11.37
2022-12-31T05:27:19.501Z,11.37
2022-12-31T05:28:19.516Z,11.4
2022-12-31T05:29:19.279Z,11.41
2022-12-31T05:30:19.595Z,11.41
2022-12-31T05:31:19.470Z,11.4
2022-12-31T05:32:19.637Z,11.41
2022-12-31T05:33:19.592Z,11.43
2022-12-31T05:34:19.618Z,11.37
2022-12-31T05:35:19.624Z,11.4
2022-12-31T05:36:19.658Z,11.44
2022-12-31T05:37:19.660Z,11.45
2022-12-31T05:38:19.442Z,11.4
2022-12-31T05:39:19.448Z,11.41
2022-12-31T05:40:19.743Z,11.43
2022-12-31T05:41:19.771Z,11.43
2022-12-31T05:42:19.211Z,11.45
2022-12-31T05:43:19.256Z,11.47
2022-12-31T05:44:19.777Z,11.48
2022-12-31T05:45:21.828Z,11.43
2022-12-31T05:46:19.988Z,11.47
2022-12-31T05:47:19.827Z,11.48
2022-12-31T05:48:19.857Z,11.41
2022-12-31T05:49:19.866Z,11.5
2022-12-31T05:50:19.875Z,11.45
2022-12-31T05:51:19.888Z,11.5
2022-12-31T05:52:20.157Z,11.5
2022-12-31T05:53:19.681Z,11.52
2022-12-31T05:54:20.202Z,11.45
2022-12-31T05:55:19.967Z,11.54
2022-12-31T05:56:19.706Z,11.5
2022-12-31T05:57:19.995Z,11.54
2022-12-31T05:58:19.991Z,11.51
2022-12-31T05:59:19.784Z,11.59
2022-12-31T06:00:20.071Z,11.5
2022-12-31T06:01:20.236Z,11.57
2022-12-31T06:02:20.298Z,11.5
2022-12-31T06:03:20.622Z,11.5
2022-12-31T06:04:20.110Z,11.5
2022-12-31T06:05:26.840Z,11.43
2022-12-31T06:06:19.892Z,11.5
2022-12-31T06:07:20.149Z,11.54
2022-12-31T06:08:19.906Z,11.57
2022-12-31T06:09:19.933Z,11.51
2022-12-31T06:10:20.225Z,11.48
2022-12-31T06:11:20.223Z,11.48
2022-12-31T06:12:20.238Z,11.52
2022-12-31T06:13:20.234Z,11.54
2022-12-31T06:14:20.271Z,11.52
2022-12-31T06:15:20.011Z,11.55
2022-12-31T06:16:20.246Z,11.52
2022-12-31T06:17:20.102Z,11.52
2022-12-31T06:18:20.371Z,11.55
2022-12-31T06:19:20.348Z,11.59
2022-12-31T06:20:20.367Z,11.54
2022-12-31T06:21:20.114Z,11.57
2022-12-31T06:22:20.384Z,11.59
2022-12-31T06:23:20.146Z,11.52
2022-12-31T06:24:19.908Z,11.57
2022-12-31T06:25:20.461Z,11.57
2022-12-31T06:26:20.536Z,11.5
2022-12-31T06:27:20.207Z,11.6
2022-12-31T06:28:25.156Z,11.52
2022-12-31T06:29:20.526Z,11.55
2022-12-31T06:30:20.275Z,11.55
2022-12-31T06:31:20.389Z,11.59
2022-12-31T06:32:20.320Z,11.51
2022-12-31T06:33:20.849Z,11.59
2022-12-31T06:34:20.688Z,11.54
2022-12-31T06:35:20.339Z,11.63
2022-12-31T06:36:20.608Z,11.62
2022-12-31T06:37:20.375Z,11.54
2022-12-31T06:38:20.633Z,11.52
2022-12-31T06:39:20.549Z,11.59
2022-12-31T06:40:20.682Z,11.54
2022-12-31T06:41:20.454Z,11.65
2022-12-31T06:42:20.735Z,11.6
2022-12-31T06:43:20.722Z,11.59
2022-12-31T06:44:20.539Z,11.62
2022-12-31T06:45:20.749Z,11.66
2022-12-31T06:46:20.952Z,11.59
2022-12-31T06:47:20.789Z,11.68
2022-12-31T06:48:20.801Z,11.65
2022-12-31T06:49:20.576Z,11.7
2022-12-31T06:50:20.901Z,11.73
2022-12-31T06:51:22.229Z,11.69
2022-12-31T06:52:21.127Z,11.7
2022-12-31T06:53:20.676Z,11.7
2022-12-31T06:54:20.912Z,11.68
2022-12-31T06:55:20.921Z,11.69
2022-12-31T06:56:20.964Z,11.75
2022-12-31T06:57:20.966Z,11.68
2022-12-31T06:58:21.149Z,11.63
2022-12-31T06:59:20.984Z,11.75
2022-12-31T07:00:20.999Z,11.66
2022-12-31T07:01:21.065Z,11.63
2022-12-31T07:02:20.934Z,11.69
2022-12-31T07:03:21.371Z,11.77
2022-12-31T07:04:21.066Z,11.66
2022-12-31T07:05:21.131Z,11.66
2022-12-31T07:06:20.899Z,11.75
2022-12-31T07:07:21.120Z,11.8
2022-12-31T07:08:20.625Z,11.75
2022-12-31T07:09:21.143Z,11.73
2022-12-31T07:10:29.606Z,11.73
2022-12-31T07:11:21.191Z,11.77
2022-12-31T07:12:20.942Z,11.72
2022-12-31T07:13:21.216Z,11.73
2022-12-31T07:14:21.252Z,11.75
2022-12-31T07:15:21.239Z,11.75
2022-12-31T07:16:21.297Z,11.77
2022-12-31T07:17:21.299Z,11.84
2022-12-31T07:18:21.304Z,11.75
2022-12-31T07:19:21.347Z,11.8
2022-12-31T07:20:21.326Z,11.73
2022-12-31T07:21:21.128Z,11.88
2022-12-31T07:22:21.182Z,11.87
2022-12-31T07:23:21.116Z,11.78
2022-12-31T07:24:21.157Z,11.8
2022-12-31T07:25:21.420Z,11.78
2022-12-31T07:26:21.432Z,11.8
2022-12-31T07:27:21.451Z,11.86
2022-12-31T07:28:21.473Z,11.78
2022-12-31T07:29:21.213Z,11.86
2022-12-31T07:30:21.505Z,11.81
2022-12-31T07:31:21.643Z,11.8
2022-12-31T07:32:21.533Z,11.81
2022-12-31T07:33:21.278Z,11.81
2022-12-31T07:34:21.311Z,11.8
2022-12-31T07:35:21.575Z,11.83
2022-12-31T07:36:21.387Z,11.78
2022-12-31T07:37:21.607Z,11.84
2022-12-31T07:38:21.872Z,11.84
2022-12-31T07:39:21.635Z,11.87
2022-12-31T07:40:21.686Z,11.86
2022-12-31T07:41:21.715Z,11.87
2022-12-31T07:42:21.487Z,11.84
2022-12-31T07:43:21.435Z,11.87
2022-12-31T07:44:21.461Z,11.94
2022-12-31T07:45:21.752Z,12
2022-12-31T07:46:21.961Z,11.9
2022-12-31T07:47:21.772Z,11.84
2022-12-31T07:48:21.923Z,11.87
2022-12-31T07:49:21.536Z,11.83
2022-12-31T07:50:21.822Z,11.86
2022-12-31T07:51:21.835Z,11.9
2022-12-31T07:52:22.293Z,11.87
2022-12-31T07:53:21.889Z,11.83
2022-12-31T07:54:21.985Z,11.88
2022-12-31T07:55:21.898Z,11.9
2022-12-31T07:56:21.923Z,11.9
2022-12-31T07:57:21.425Z,11.91
2022-12-31T07:58:21.678Z,11.91
2022-12-31T07:59:28.792Z,11.9
2022-12-31T08:00:21.730Z,11.95
2022-12-31T08:01:21.937Z,11.88
2022-12-31T08:02:22.548Z,11.88
2022-12-31T08:03:22.041Z,11.91
2022-12-31T08:04:21.539Z,11.91
2022-12-31T08:05:22.076Z,11.9
2022-12-31T08:06:22.087Z,11.99
2022-12-31T08:07:22.127Z,11.87
2022-12-31T08:08:21.842Z,11.91
2022-12-31T08:09:22.131Z,12
2022-12-31T08:10:23.286Z,11.99
2022-12-31T08:11:22.166Z,12.03
2022-12-31T08:12:21.918Z,12
2022-12-31T08:13:21.943Z,12.02
2022-12-31T08:14:22.268Z,12.02
2022-12-31T08:15:25.512Z,12
2022-12-31T08:16:22.398Z,12.03
2022-12-31T08:17:22.273Z,12.03
2022-12-31T08:18:22.489Z,12
2022-12-31T08:19:22.289Z,12.02
2022-12-31T08:20:21.853Z,12.02
2022-12-31T08:21:22.062Z,12.06
2022-12-31T08:22:22.332Z,12.1
2022-12-31T08:23:22.367Z,12.02
2022-12-31T08:24:22.377Z,12.1
2022-12-31T08:25:22.413Z,12.06
2022-12-31T08:26:22.191Z,12.07
2022-12-31T08:27:22.412Z,12.13
2022-12-31T08:28:22.574Z,12.1
2022-12-31T08:29:22.193Z,12.09
2022-12-31T08:30:22.219Z,12.04
2022-12-31T08:31:22.415Z,12.15
2022-12-31T08:32:22.246Z,12.07
2022-12-31T08:33:22.517Z,12.06
2022-12-31T08:34:22.585Z,12.02
2022-12-31T08:35:22.555Z,12.17
2022-12-31T08:36:22.568Z,12.04
2022-12-31T08:37:22.333Z,12.06
2022-12-31T08:38:22.337Z,12.12
2022-12-31T08:39:22.620Z,12.2
2022-12-31T08:40:22.637Z,12.07
2022-12-31T08:41:22.651Z,12.12
2022-12-31T08:42:22.466Z,12.12
2022-12-31T08:43:22.692Z,12.1
2022-12-31T08:44:22.711Z,12.18
2022-12-31T08:45:22.798Z,12.1
2022-12-31T08:46:22.921Z,12.18
2022-12-31T08:47:22.493Z,12.15
2022-12-31T08:48:22.914Z,12.12
2022-12-31T08:49:22.812Z,12.18
2022-12-31T08:50:22.825Z,12.18
2022-12-31T08:51:22.834Z,12.15
2022-12-31T08:52:23.050Z,12.2
2022-12-31T08:53:22.862Z,12.2
2022-12-31T08:54:22.354Z,12.24
2022-12-31T08:55:22.933Z,12.21
2022-12-31T08:56:22.639Z,12.21
2022-12-31T08:57:22.918Z,12.2
2022-12-31T08:58:22.986Z,12.17
2022-12-31T08:59:22.956Z,12.22
2022-12-31T09:00:22.799Z,12.24
2022-12-31T09:01:23.382Z,12.18
2022-12-31T09:02:22.787Z,12.22
2022-12-31T09:03:22.746Z,12.29
2022-12-31T09:04:23.131Z,12.18
2022-12-31T09:05:22.804Z,12.25
2022-12-31T09:06:23.106Z,12.32
2022-12-31T09:07:23.090Z,12.27
2022-12-31T09:08:23.114Z,12.32
2022-12-31T09:09:22.860Z,12.25
2022-12-31T09:10:23.173Z,12.21
2022-12-31T09:11:27.816Z,12.28
2022-12-31T09:12:23.147Z,12.2
2022-12-31T09:13:23.189Z,12.28
2022-12-31T09:14:23.247Z,12.31
2022-12-31T09:15:22.956Z,12.25
2022-12-31T09:16:23.373Z,12.24
2022-12-31T09:17:23.238Z,12.24
2022-12-31T09:18:25.917Z,12.24
2022-12-31T09:19:23.282Z,12.28
2022-12-31T09:20:23.174Z,12.27
2022-12-31T09:21:23.322Z,12.24
2022-12-31T09:22:23.387Z,12.29
2022-12-31T09:23:23.096Z,12.27
2022-12-31T09:24:23.380Z,12.36
2022-12-31T09:25:23.379Z,12.27
2022-12-31T09:26:23.389Z,12.28
2022-12-31T09:27:31.883Z,12.31
2022-12-31T09:28:23.223Z,12.31
2022-12-31T09:29:23.434Z,12.31
2022-12-31T09:30:23.605Z,12.27
2022-12-31T09:31:23.597Z,12.25
2022-12-31T09:32:23.526Z,12.35
2022-12-31T09:33:23.507Z,12.4
2022-12-31T09:34:23.529Z,12.35
2022-12-31T09:35:23.540Z,12.37
2022-12-31T09:36:23.547Z,12.35
2022-12-31T09:37:23.574Z,12.36
2022-12-31T09:38:23.371Z,12.39
2022-12-31T09:39:23.744Z,12.42
2022-12-31T09:40:23.768Z,12.32
2022-12-31T09:41:23.634Z,12.4
2022-12-31T09:42:23.652Z,12.37
2022-12-31T09:43:23.673Z,12.35
2022-12-31T09:44:23.732Z,12.42
2022-12-31T09:45:23.698Z,12.45
2022-12-31T09:46:23.946Z,12.36
2022-12-31T09:47:23.753Z,12.4
2022-12-31T09:48:23.741Z,12.39
2022-12-31T09:49:23.770Z,12.42
2022-12-31T09:50:23.783Z,12.39
2022-12-31T09:51:29.930Z,12.43
2022-12-31T09:52:23.758Z,12.31
2022-12-31T09:53:23.874Z,12.39
2022-12-31T09:54:23.875Z,12.45
2022-12-31T09:55:23.660Z,12.43
2022-12-31T09:56:23.623Z,12.46
2022-12-31T09:57:23.943Z,12.49
2022-12-31T09:58:23.694Z,12.47
2022-12-31T09:59:23.950Z,12.5
2022-12-31T10:00:24.026Z,12.45
2022-12-31T10:01:24.088Z,12.43
2022-12-31T10:02:24.739Z,12.47
2022-12-31T10:03:24.195Z,12.45
2022-12-31T10:04:25.835Z,12.47
2022-12-31T10:05:23.774Z,12.36
2022-12-31T10:06:24.067Z,12.54
2022-12-31T10:07:24.074Z,12.54
2022-12-31T10:08:24.096Z,12.42
2022-12-31T10:09:24.095Z,12.43
2022-12-31T10:10:24.255Z,12.55
2022-12-31T10:11:24.133Z,12.53
2022-12-31T10:12:24.153Z,12.57
2022-12-31T10:13:24.158Z,12.53
2022-12-31T10:14:24.288Z,12.49
2022-12-31T10:15:24.208Z,12.55
2022-12-31T10:16:24.209Z,12.58
2022-12-31T10:17:24.231Z,12.54
2022-12-31T10:18:24.323Z,12.49
2022-12-31T10:19:24.041Z,12.55
2022-12-31T10:20:24.288Z,12.58
2022-12-31T10:21:24.291Z,12.55
2022-12-31T10:22:24.051Z,12.5
2022-12-31T10:23:24.077Z,12.57
2022-12-31T10:24:24.338Z,12.5
2022-12-31T10:25:41.616Z,12.58
2022-12-31T10:26:24.483Z,12.5
2022-12-31T10:27:24.391Z,12.54
2022-12-31T10:28:24.414Z,12.58
2022-12-31T10:29:24.462Z,12.55
2022-12-31T10:30:24.534Z,12.55
2022-12-31T10:31:24.331Z,12.57
2022-12-31T10:32:31.839Z,12.55
2022-12-31T10:33:24.499Z,12.57
2022-12-31T10:34:24.312Z,12.58
2022-12-31T10:35:24.542Z,12.68
2022-12-31T10:36:24.554Z,12.6
2022-12-31T10:37:24.567Z,12.6
2022-12-31T10:38:24.319Z,12.61
2022-12-31T10:39:29.307Z,12.58
2022-12-31T10:40:24.627Z,12.57
2022-12-31T10:41:24.621Z,12.62
2022-12-31T10:42:24.787Z,12.55
2022-12-31T10:43:24.672Z,12.61
2022-12-31T10:44:24.674Z,12.65
2022-12-31T10:45:24.441Z,12.6
2022-12-31T10:46:28.067Z,12.65
2022-12-31T10:47:24.467Z,12.61
2022-12-31T10:48:24.749Z,12.68
2022-12-31T10:49:24.759Z,12.55
2022-12-31T10:50:24.868Z,12.67
2022-12-31T10:51:24.819Z,12.55
2022-12-31T10:52:25.205Z,12.61
2022-12-31T10:53:24.821Z,12.68
2022-12-31T10:54:24.842Z,12.64
2022-12-31T10:55:24.868Z,12.72
2022-12-31T10:56:24.880Z,12.64
2022-12-31T10:57:24.899Z,12.75
2022-12-31T10:58:24.979Z,12.76
2022-12-31T10:59:24.680Z,12.68
2022-12-31T11:00:24.450Z,12.68
2022-12-31T11:01:25.252Z,12.61
2022-12-31T11:02:25.445Z,12.76
2022-12-31T11:03:33.701Z,12.7
2022-12-31T11:04:24.757Z,12.75
2022-12-31T11:05:25.014Z,12.78
2022-12-31T11:06:25.102Z,12.76
2022-12-31T11:07:25.051Z,12.67
2022-12-31T11:08:25.084Z,12.67
2022-12-31T11:09:27.444Z,12.78
2022-12-31T11:10:24.873Z,12.64
2022-12-31T11:11:25.120Z,12.75
2022-12-31T11:12:25.142Z,12.7
2022-12-31T11:13:25.160Z,12.75
2022-12-31T11:14:25.194Z,12.67
2022-12-31T11:15:25.257Z,12.68
2022-12-31T11:16:24.993Z,12.7
2022-12-31T11:17:25.226Z,12.68
2022-12-31T11:18:24.722Z,12.79
2022-12-31T11:19:25.268Z,12.78
2022-12-31T11:20:25.035Z,12.82
2022-12-31T11:21:35.205Z,12.85
2022-12-31T11:22:25.300Z,12.82
2022-12-31T11:23:25.330Z,12.79
2022-12-31T11:24:25.349Z,12.82
2022-12-31T11:25:25.352Z,12.78
2022-12-31T11:26:25.372Z,12.78
2022-12-31T11:27:25.394Z,12.83
2022-12-31T11:28:25.157Z,12.78
2022-12-31T11:29:25.171Z,12.78
2022-12-31T11:30:25.462Z,12.79
2022-12-31T11:31:25.731Z,12.93
2022-12-31T11:32:25.497Z,12.8
2022-12-31T11:33:25.482Z,12.91
2022-12-31T11:34:25.279Z,12.9
2022-12-31T11:35:25.535Z,12.87
2022-12-31T11:36:25.549Z,12.83
2022-12-31T11:37:25.737Z,12.9
2022-12-31T11:38:25.564Z,12.94
2022-12-31T11:39:34.008Z,12.93
2022-12-31T11:40:25.634Z,12.9
2022-12-31T11:41:25.618Z,12.9
2022-12-31T11:42:25.644Z,12.9
2022-12-31T11:43:25.398Z,12.91
2022-12-31T11:44:25.681Z,12.9
2022-12-31T11:45:25.701Z,12.8
2022-12-31T11:46:25.849Z,12.78
2022-12-31T11:47:25.475Z,12.93
2022-12-31T11:48:35.350Z,12.91
2022-12-31T11:49:25.235Z,12.9
2022-12-31T11:50:25.786Z,12.87
2022-12-31T11:51:25.536Z,12.91
2022-12-31T11:52:26.817Z,12.94
2022-12-31T11:53:25.878Z,12.93
2022-12-31T11:54:25.853Z,12.97
2022-12-31T11:55:25.883Z,12.95
2022-12-31T11:56:25.882Z,12.98
2022-12-31T11:57:25.884Z,13.01
2022-12-31T11:58:25.921Z,13
2022-12-31T11:59:25.922Z,13
2022-12-31T12:00:25.984Z,13.01
2022-12-31T12:01:26.094Z,12.95
2022-12-31T12:02:26.292Z,13
2022-12-31T12:03:26.135Z,12.97
2022-12-31T12:04:26.014Z,13.01
2022-12-31T12:05:25.788Z,12.95
2022-12-31T12:06:25.799Z,13
2022-12-31T12:07:26.060Z,13.01
2022-12-31T12:08:26.074Z,12.97
2022-12-31T12:09:26.144Z,13.04
2022-12-31T12:10:31.908Z,13.01
2022-12-31T12:11:26.120Z,13.05
2022-12-31T12:12:26.152Z,13.04
2022-12-31T12:13:26.200Z,13.08
2022-12-31T12:14:26.184Z,13.08
2022-12-31T12:15:25.929Z,13.05
2022-12-31T12:16:26.453Z,13.09
2022-12-31T12:17:26.224Z,13.05
2022-12-31T12:18:26.272Z,13.03
2022-12-31T12:19:26.255Z,13.04
2022-12-31T12:20:26.291Z,13.09
2022-12-31T12:21:26.312Z,13.03
2022-12-31T12:22:26.306Z,13.01
2022-12-31T12:23:26.078Z,13.05
2022-12-31T12:24:26.089Z,13.03
2022-12-31T12:25:26.428Z,13.04
2022-12-31T12:26:26.426Z,13.05
2022-12-31T12:27:26.176Z,13.03
2022-12-31T12:28:26.205Z,13.05
2022-12-31T12:29:26.467Z,13.01
2022-12-31T12:30:26.495Z,13.03
2022-12-31T12:31:26.763Z,13.04
2022-12-31T12:32:26.225Z,13.09
2022-12-31T12:33:26.223Z,13.08
2022-12-31T12:34:26.541Z,13.08
2022-12-31T12:35:26.273Z,13.13
2022-12-31T12:36:26.538Z,13.15
2022-12-31T12:37:26.594Z,13.08
2022-12-31T12:38:26.579Z,13.08
2022-12-31T12:39:26.359Z,13
2022-12-31T12:40:35.304Z,13.09
2022-12-31T12:41:26.670Z,13.13
2022-12-31T12:42:26.436Z,13.03
2022-12-31T12:43:26.691Z,13.08
2022-12-31T12:44:26.150Z,13.09
2022-12-31T12:45:26.454Z,13.05
2022-12-31T12:46:26.592Z,13.13
2022-12-31T12:47:26.461Z,13.13
2022-12-31T12:48:26.741Z,13.15
2022-12-31T12:49:26.525Z,13.15
2022-12-31T12:50:26.837Z,13.15
2022-12-31T12:51:26.819Z,13.11
2022-12-31T12:52:27.388Z,13.12
2022-12-31T12:53:26.577Z,13.08
2022-12-31T12:54:26.860Z,13.05
2022-12-31T12:55:26.878Z,13.09
2022-12-31T12:56:26.895Z,13.12